Time;durP1;ratioP1;P1;durP2;ratioP2;P2;SDS_P1;SDS_P2;PMS_P1;PMS_P2;Temp;Humidity;BMP_temperature;BMP_pressure;BME280_temperature;BME280_humidity;BME280_pressure;Samples;Min_cycle;Max_cycle;Signal;HPM_P1;HPM_P2
2023/06/15 00:01:36;;;;;;;9.75;6.68;;;;;;;17.18;93.29;93829.72;5106175;28;20027;-89
2023/06/15 00:04:11;;;;;;;9.90;7.00;;;;;;;17.18;93.68;93830.50;5106788;28;20024;-90
2023/06/15 00:06:39;;;;;;;11.00;7.30;;;;;;;17.21;93.54;93832.47;5107528;28;20016;-91
2023/06/15 00:09:14;;;;;;;8.75;6.80;;;;;;;17.20;92.93;93822.06;5108214;28;20020;-93
2023/06/15 00:11:40;;;;;;;9.35;6.70;;;;;;;17.20;93.06;93822.84;5108167;28;20099;-93
2023/06/15 00:14:20;;;;;;;14.45;6.65;;;;;;;17.25;92.55;93821.78;5106913;28;20023;-93
2023/06/15 00:16:54;;;;;;;10.43;6.97;;;;;;;17.22;92.20;93811.72;5108162;28;20152;-92
2023/06/15 00:19:23;;;;;;;7.53;5.90;;;;;;;17.16;91.65;93818.53;5107740;28;20310;-93
2023/06/15 00:21:58;;;;;;;;;;;;;;;;;;;;;
2023/06/15 00:24:27;;;;;;;8.90;6.18;;;;;;;17.15;91.00;93811.56;5106897;28;20090;-94
2023/06/15 00:27:01;;;;;;;8.15;5.85;;;;;;;17.14;90.67;93815.41;5106850;28;20095;-94
2023/06/15 00:29:27;;;;;;;9.88;6.70;;;;;;;17.13;90.40;93814.63;5106900;28;20217;-90
2023/06/15 00:31:52;;;;;;;8.70;6.57;;;;;;;17.13;90.62;93813.84;5105528;28;20028;-90
2023/06/15 00:34:18;;;;;;;9.95;6.70;;;;;;;17.10;90.15;93814.56;5105679;28;20073;-90
2023/06/15 00:36:43;;;;;;;8.40;5.15;;;;;;;17.09;90.26;93805.69;5105615;28;20054;-90
2023/06/15 00:39:12;;;;;;;9.23;5.90;;;;;;;17.11;90.48;93799.94;5105380;28;20030;-90
2023/06/15 00:41:44;;;;;;;9.45;5.90;;;;;;;17.10;90.66;93814.56;5105466;28;20024;-90
2023/06/15 00:44:10;;;;;;;;;;;;;;;17.05;90.40;93805.63;5106299;28;20039;-92
2023/06/15 00:46:39;;;;;;;9.68;6.03;;;;;;;17.00;90.65;93805.13;5105513;28;19904;-92
2023/06/15 00:49:08;;;;;;;9.80;6.25;;;;;;;16.97;90.75;93806.59;5106580;28;20081;-92
2023/06/15 00:51:35;;;;;;;9.23;6.03;;;;;;;17.00;91.38;93803.22;5104735;28;20031;-92
2023/06/15 00:54:02;;;;;;;8.07;6.72;;;;;;;16.95;91.00;93800.78;5106050;28;20028;-92
2023/06/15 00:56:29;;;;;;;9.23;6.53;;;;;;;16.93;90.85;93796.91;5104429;28;20028;-87
2023/06/15 00:58:55;;;;;;;11.57;7.28;;;;;;;16.95;91.25;93786.56;5104035;28;20030;-87
2023/06/15 01:01:21;;;;;;;12.73;7.95;;;;;;;16.90;91.40;93795.72;5104137;28;20417;-87
2023/06/15 01:03:47;;;;;;;12.60;7.53;;;;;;;16.98;91.42;93802.78;5104473;28;20024;-87
2023/06/15 01:06:15;;;;;;;12.88;7.32;;;;;;;16.98;90.93;93802.03;5104015;28;20026;-87
2023/06/15 01:08:43;;;;;;;15.45;7.63;;;;;;;16.89;90.88;93796.81;5103917;28;20283;-87
2023/06/15 01:11:09;;;;;;;15.68;7.88;;;;;;;16.84;91.41;93792.50;5103904;28;20020;-86
2023/06/15 01:13:35;;;;;;;10.88;6.40;;;;;;;16.86;91.96;93802.94;5103963;28;20091;-87
2023/06/15 01:16:06;;;;;;;9.13;6.53;;;;;;;16.74;91.49;93797.66;5103781;28;20020;-86
2023/06/15 01:18:34;;;;;;;12.23;6.82;;;;;;;16.67;92.19;93798.28;5103609;28;20050;-87
2023/06/15 01:21:04;;;;;;;11.88;6.80;;;;;;;16.62;92.67;93785.09;5103597;28;20031;-86
2023/06/15 01:24:05;;;;;;;11.27;7.00;;;;;;;16.61;93.32;93784.34;5103724;28;20035;-87
2023/06/15 01:26:33;;;;;;;8.32;5.82;;;;;;;16.59;93.37;93794.66;5097713;28;20036;-86
2023/06/15 01:28:59;;;;;;;10.15;7.20;;;;;;;16.57;93.56;93785.41;5102636;28;20024;-88
2023/06/15 01:31:25;;;;;;;8.95;7.30;;;;;;;16.59;93.77;93780.44;5102734;28;20259;-87
2023/06/15 01:33:51;;;;;;;8.70;7.07;;;;;;;16.59;93.45;93781.22;5103002;28;20048;-87
2023/06/15 01:36:18;;;;;;;16.95;7.05;;;;;;;16.63;93.21;93784.00;5103228;28;20267;-87
2023/06/15 01:38:45;;;;;;;10.50;7.22;;;;;;;16.63;93.18;93776.69;5103358;28;20028;-87
2023/06/15 01:41:12;;;;;;;9.60;7.45;;;;;;;16.61;93.09;93776.25;5103564;28;20031;-88
2023/06/15 01:43:39;;;;;;;13.00;7.72;;;;;;;16.61;93.07;93780.88;5103976;28;20024;-89
2023/06/15 01:46:05;;;;;;;11.68;7.15;;;;;;;16.64;93.29;93782.84;5103779;28;20020;-88
2023/06/15 01:48:32;;;;;;;11.90;7.18;;;;;;;16.65;93.10;93779.81;5103721;28;20035;-88
2023/06/15 01:50:58;;;;;;;12.57;6.75;;;;;;;16.62;93.21;93779.72;5103556;28;20023;-88
2023/06/15 01:53:24;;;;;;;11.27;6.72;;;;;;;16.61;93.18;93781.66;5103738;28;20024;-88
2023/06/15 01:55:51;;;;;;;14.70;7.22;;;;;;;16.63;92.97;93776.69;5102597;28;20344;-89
2023/06/15 01:58:16;;;;;;;9.70;6.20;;;;;;;16.64;93.21;93780.94;5103528;28;20027;-89
2023/06/15 02:00:46;;;;;;;9.98;6.90;;;;;;;16.67;93.11;93784.84;5103438;28;20217;-87
2023/06/15 02:03:11;;;;;;;8.68;7.05;;;;;;;16.67;93.13;93782.16;5104532;28;20386;-88
2023/06/15 02:05:41;;;;;;;14.20;7.85;;;;;;;16.68;92.65;93772.94;5107601;28;20020;-88
2023/06/15 02:08:07;;;;;;;11.27;6.90;;;;;;;16.65;92.50;93773.66;5107521;28;20031;-88
2023/06/15 02:10:33;;;;;;;9.30;6.72;;;;;;;16.61;92.45;93773.56;5107544;28;20051;-87
2023/06/15 02:12:58;;;;;;;8.32;5.88;;;;;;;16.61;92.45;93764.72;5107401;28;20039;-87
2023/06/15 02:15:38;;;;;;;7.40;5.57;;;;;;;16.63;92.13;93770.53;5108029;28;20012;-88
2023/06/15 02:18:16;;;;;;;16.42;6.07;;;;;;;16.62;91.38;93775.13;5107165;28;20055;-86
2023/06/15 02:20:43;;;;;;;7.43;5.70;;;;;;;16.56;91.45;93767.69;5105820;28;20306;-92
2023/06/15 02:23:10;;;;;;;12.95;5.85;;;;;;;16.52;91.76;93759.53;5107869;28;20051;-93
2023/06/15 02:25:36;;;;;;;7.72;4.85;;;;;;;16.55;91.75;93766.91;5107769;28;20026;-92
2023/06/15 02:28:01;;;;;;;9.13;4.90;;;;;;;16.56;91.49;93759.63;5106791;28;20027;-92
2023/06/15 02:30:27;;;;;;;8.35;5.30;;;;;;;16.51;91.57;93760.69;5107670;28;20090;-92
2023/06/15 02:32:53;;;;;;;6.70;4.65;;;;;;;16.48;91.58;93761.38;5108556;28;20065;-86
2023/06/15 02:35:19;;;;;;;10.43;5.63;;;;;;;16.52;91.44;93770.28;5107316;28;20071;-87
2023/06/15 02:37:54;;;;;;;6.70;4.95;;;;;;;16.51;91.72;93755.28;5109002;28;20028;-87
2023/06/15 02:40:20;;;;;;;8.85;5.70;;;;;;;16.49;91.69;93757.56;5108832;28;20027;-87
2023/06/15 02:42:48;;;;;;;10.95;5.38;;;;;;;16.46;91.93;93760.94;5107245;28;20313;-87
2023/06/15 02:45:14;;;;;;;13.82;6.50;;;;;;;16.52;92.16;93759.53;5106643;28;20027;-87
2023/06/15 02:47:39;;;;;;;7.72;5.85;;;;;;;16.51;92.34;93774.13;5107545;28;20016;-87
2023/06/15 02:50:05;;;;;;;8.70;6.13;;;;;;;16.54;92.48;93772.63;5107452;28;20217;-87
2023/06/15 02:52:36;;;;;;;9.25;6.47;;;;;;;16.54;92.52;93767.25;5107180;28;20020;-87
2023/06/15 02:55:02;;;;;;;11.80;5.80;;;;;;;16.56;92.70;93765.75;5106842;28;20039;-87
2023/06/15 02:57:28;;;;;;;8.63;5.88;;;;;;;16.58;92.61;93763.50;5106225;28;20028;-87
2023/06/15 02:59:53;;;;;;;10.50;6.10;;;;;;;16.61;92.64;93768.19;5106127;28;20031;-87
2023/06/15 03:02:23;;;;;;;12.45;6.65;;;;;;;16.64;92.71;93766.69;5106419;28;20028;-86
2023/06/15 03:04:50;;;;;;;9.90;6.18;;;;;;;16.67;93.11;93760.63;5106508;28;20046;-87
2023/06/15 03:07:17;;;;;;;9.18;5.95;;;;;;;16.70;92.60;93767.19;5106469;28;20024;-86
2023/06/15 03:09:46;;;;;;;11.27;6.07;;;;;;;16.72;92.82;93768.41;5106198;28;20043;-87
2023/06/15 03:12:11;;;;;;;13.70;6.63;;;;;;;16.73;92.86;93761.91;5105005;28;20031;-87
2023/06/15 03:14:37;;;;;;;8.10;6.43;;;;;;;16.77;92.72;93770.81;5106292;28;20020;-87
2023/06/15 03:17:04;;;;;;;10.02;6.95;;;;;;;16.76;92.93;93763.09;5106421;28;20028;-86
2023/06/15 03:19:36;;;;;;;12.48;7.55;;;;;;;16.78;93.30;93766.97;5112224;28;20356;-89
2023/06/15 03:22:02;;;;;;;13.43;7.03;;;;;;;16.81;93.19;93760.94;5108630;28;20027;-86
2023/06/15 03:24:30;;;;;;;12.25;7.45;;;;;;;16.84;93.77;93762.13;5105248;28;20027;-87
2023/06/15 03:27:18;;;;;;;10.60;8.10;;;;;;;16.90;93.66;93757.25;5113125;28;20020;-89
2023/06/15 03:30:20;;;;;;;12.18;6.25;;;;;;;16.89;93.31;93758.38;5114598;28;20026;-89
2023/06/15 03:33:10;;;;;;;13.23;6.95;;;;;;;16.90;93.05;93754.56;5129435;28;20035;-89
2023/06/15 03:35:38;;;;;;;8.68;6.43;;;;;;;16.86;93.25;93743.72;5092914;28;20047;-87
2023/06/15 03:38:04;;;;;;;7.28;6.28;;;;;;;16.88;93.22;93746.84;5112869;28;20034;-87
2023/06/15 03:40:30;;;;;;;11.88;7.03;;;;;;;16.87;93.04;93752.56;5106276;28;20027;-88
2023/06/15 03:42:55;;;;;;;10.30;7.97;;;;;;;16.84;93.38;93754.84;5106316;28;20050;-88
2023/06/15 03:45:21;;;;;;;9.48;7.07;;;;;;;16.86;93.27;93756.41;5106563;28;20019;-89
2023/06/15 03:47:49;;;;;;;13.32;7.18;;;;;;;16.85;93.10;93755.59;5106300;28;20016;-88
2023/06/15 03:50:18;;;;;;;8.15;6.53;;;;;;;16.88;93.28;93760.28;5105040;28;20031;-88
2023/06/15 03:52:46;;;;;;;11.68;7.40;;;;;;;16.88;93.00;93751.44;5105023;28;20020;-88
2023/06/15 03:55:13;;;;;;;10.90;8.25;;;;;;;16.91;93.33;93756.88;5105776;28;20031;-88
2023/06/15 03:57:47;;;;;;;13.55;8.20;;;;;;;16.96;93.05;93769.28;5107104;28;20275;-89
2023/06/15 04:00:16;;;;;;;10.80;7.45;;;;;;;17.01;92.90;93767.06;5105668;28;20031;-88
2023/06/15 04:02:42;;;;;;;9.60;7.50;;;;;;;17.09;92.83;93772.59;5104764;28;20028;-87
2023/06/15 04:05:07;;;;;;;10.65;7.63;;;;;;;17.08;92.63;93762.97;5105746;28;20337;-88
2023/06/15 04:07:34;;;;;;;12.38;7.55;;;;;;;17.12;92.44;93764.59;5105547;28;20314;-87
2023/06/15 04:10:00;;;;;;;9.45;7.32;;;;;;;17.13;91.99;93766.13;5105618;28;20043;-87
2023/06/15 04:12:28;;;;;;;14.77;7.90;;;;;;;17.16;92.00;93770.06;5104332;28;20234;-87
2023/06/15 04:14:59;;;;;;;8.80;6.97;;;;;;;17.22;91.46;93771.31;5105322;28;20024;-87
2023/06/15 04:17:24;;;;;;;12.00;7.72;;;;;;;17.25;91.11;93765.97;5105339;28;20024;-88
2023/06/15 04:19:53;;;;;;;9.10;7.50;;;;;;;17.29;91.45;93768.75;5105364;28;20062;-88
2023/06/15 04:22:21;;;;;;;10.35;7.88;;;;;;;17.37;91.42;93767.72;5105648;28;20030;-89
2023/06/15 04:24:46;;;;;;;9.95;7.85;;;;;;;17.48;92.12;93776.00;5104873;28;20024;-88
2023/06/15 04:27:18;;;;;;;12.20;8.32;;;;;;;17.59;91.93;93765.41;5103743;28;20066;-87
2023/06/15 04:29:52;;;;;;;12.15;8.30;;;;;;;17.72;91.67;93757.94;5103461;28;20020;-88
2023/06/15 04:32:18;;;;;;;11.27;7.88;;;;;;;17.91;91.23;93759.78;5104908;28;20110;-88
2023/06/15 04:34:46;;;;;;;15.25;7.88;;;;;;;18.10;89.90;93770.50;5104988;28;20016;-88
2023/06/15 04:37:13;;;;;;;8.07;5.97;;;;;;;18.20;89.06;93766.41;5103559;28;20042;-88
2023/06/15 04:39:38;;;;;;;9.70;6.55;;;;;;;18.25;88.05;93766.84;5104858;28;20090;-87
2023/06/15 04:42:04;;;;;;;10.82;6.22;;;;;;;18.34;87.26;93771.22;5104941;28;20379;-87
2023/06/15 04:44:30;;;;;;;11.70;7.13;;;;;;;18.38;87.29;93772.84;5104841;28;20043;-86
2023/06/15 04:46:55;;;;;;;12.15;7.00;;;;;;;18.48;87.10;93767.94;5103610;28;20238;-86
2023/06/15 04:49:21;;;;;;;17.05;6.80;;;;;;;18.49;86.82;93761.41;5103506;28;20020;-87
2023/06/15 04:51:58;;;;;;;;;;;;;;;;;;;;;
2023/06/15 04:54:26;;;;;;;10.77;6.20;;;;;;;18.58;85.71;93776.19;5101681;28;20058;-87
2023/06/15 04:56:57;;;;;;;8.00;6.72;;;;;;;18.58;85.41;93781.59;5104622;28;20107;-87
2023/06/15 04:59:24;;;;;;;11.82;6.47;;;;;;;18.62;85.23;93778.91;5104690;28;20016;-88
2023/06/15 05:02:21;;;;;;;10.13;7.68;;;;;;;18.66;84.47;93777.03;5104701;28;20038;-87
2023/06/15 05:04:47;;;;;;;14.45;7.03;;;;;;;18.75;83.52;93782.19;5104696;28;20020;-86
2023/06/15 05:07:20;;;;;;;14.98;7.72;;;;;;;18.74;83.30;93783.31;5104582;28;20079;-87
2023/06/15 05:09:45;;;;;;;11.00;7.68;;;;;;;18.78;83.58;93784.13;5104381;28;20137;-86
2023/06/15 05:12:11;;;;;;;17.48;7.30;;;;;;;18.86;83.47;93795.84;5103005;28;20195;-87
2023/06/15 05:14:37;;;;;;;10.90;7.00;;;;;;;18.87;83.16;93792.78;5120122;28;20099;-87
2023/06/15 05:17:03;;;;;;;9.73;7.32;;;;;;;18.87;83.14;93784.69;5103000;28;20066;-87
2023/06/15 05:19:34;;;;;;;10.82;8.02;;;;;;;18.91;82.57;93790.91;5104184;28;20028;-88
2023/06/15 05:22:08;;;;;;;7.65;6.60;;;;;;;18.94;83.18;93790.16;5104699;28;20023;-89
2023/06/15 05:24:34;;;;;;;8.55;7.40;;;;;;;18.99;82.81;93795.25;5104400;28;20317;-88
2023/06/15 05:27:01;;;;;;;9.40;7.43;;;;;;;19.06;81.81;93793.78;5104404;28;20379;-88
2023/06/15 05:29:26;;;;;;;11.65;7.95;;;;;;;19.10;81.77;93795.38;5103762;28;20016;-87
2023/06/15 05:31:55;;;;;;;11.23;7.68;;;;;;;19.15;82.06;93805.06;5104122;28;20098;-87
2023/06/15 05:34:20;;;;;;;13.65;8.38;;;;;;;19.20;81.65;93807.44;5104387;28;20035;-88
2023/06/15 05:36:46;;;;;;;14.15;8.70;;;;;;;19.23;81.84;93798.59;5103978;28;20039;-88
2023/06/15 05:39:12;;;;;;;13.27;9.05;;;;;;;19.21;81.39;93798.19;5103635;28;20040;-88
2023/06/15 05:41:37;;;;;;;17.15;9.23;;;;;;;19.27;81.57;93804.81;5103530;28;20306;-88
2023/06/15 05:44:03;;;;;;;13.32;9.27;;;;;;;19.30;81.83;93798.69;5103613;28;20099;-88
2023/06/15 05:46:28;;;;;;;13.68;8.93;;;;;;;19.31;81.79;93802.16;5104145;28;20202;-88
2023/06/15 05:48:56;;;;;;;21.25;10.60;;;;;;;19.29;81.43;93807.91;5104142;28;20271;-87
2023/06/15 05:51:21;;;;;;;15.75;9.25;;;;;;;19.22;81.31;93808.63;5103936;28;20024;-87
2023/06/15 05:53:47;;;;;;;17.13;9.25;;;;;;;19.15;81.34;93807.75;5104158;28;20091;-87
2023/06/15 05:56:12;;;;;;;19.30;11.00;;;;;;;19.08;82.20;93813.09;5103882;28;20023;-87
2023/06/15 05:58:38;;;;;;;14.40;10.63;;;;;;;18.96;82.86;93806.78;5104088;28;20039;-88
2023/06/15 06:01:06;;;;;;;24.92;10.75;;;;;;;18.90;83.49;93808.25;5104126;28;20103;-88
2023/06/15 06:03:35;;;;;;;13.50;10.55;;;;;;;18.93;83.25;93801.31;5120108;28;20059;-87
2023/06/15 06:06:00;;;;;;;19.92;9.90;;;;;;;18.87;82.49;93819.00;5103872;28;20050;-86
2023/06/15 06:08:26;;;;;;;13.07;9.88;;;;;;;18.80;83.16;93808.88;5103827;28;20016;-81
2023/06/15 06:10:51;;;;;;;13.07;9.75;;;;;;;18.62;84.24;93811.31;5103029;28;20016;-82
2023/06/15 06:13:16;;;;;;;25.23;12.55;;;;;;;18.51;85.30;93807.69;5103206;28;20023;-80
2023/06/15 06:15:42;;;;;;;15.85;11.55;;;;;;;18.44;86.48;93800.28;5102613;28;20016;-80
2023/06/15 06:18:07;;;;;;;14.05;10.55;;;;;;;18.44;87.33;93795.66;5103453;28;20023;-83
2023/06/15 06:20:33;;;;;;;21.27;11.70;;;;;;;18.45;87.30;93808.00;5101818;28;20039;-82
2023/06/15 06:22:58;;;;;;;24.08;12.38;;;;;;;18.48;87.24;93803.81;5103754;28;20030;-85
2023/06/15 06:25:24;;;;;;;14.60;10.90;;;;;;;18.58;87.44;93807.78;5119007;28;20069;-83
2023/06/15 06:27:49;;;;;;;14.18;11.20;;;;;;;18.71;87.92;93808.38;5103545;28;20070;-84
2023/06/15 06:30:15;;;;;;;22.33;11.07;;;;;;;18.73;86.65;93806.06;5103578;28;20248;-87
2023/06/15 06:32:40;;;;;;;19.58;11.80;;;;;;;18.87;86.58;93814.38;5120443;28;20028;-90
2023/06/15 06:35:10;;;;;;;17.60;10.80;;;;;;;18.95;85.08;93810.63;5124290;28;20031;-94
2023/06/15 08:07:22;;;;;;;;;;;;;;;;;;;;;
2023/06/15 08:10:22;;;;;;;;;;;;;;;;;;;;;
2023/06/15 08:22:22;;;;;;;;;;;;;;;;;;;;;
2023/06/15 08:25:41;;;;;;;;;;;;;;;;;;;;;
2023/06/15 08:28:07;;;;;;;;;;;;;;;;;;;;;
2023/06/15 08:30:50;;;;;;;;;;;;;;;;;;;;;
2023/06/15 08:33:38;;;;;;;21.13;11.95;;;;;;;21.68;71.72;93806.47;4917210;29;20047;-94
2023/06/15 08:37:02;;;;;;;;;;;;;;;;;;;;;
2023/06/15 08:40:06;;;;;;;26.23;11.18;;;;;;;21.75;71.85;93809.19;4919167;29;20024;-96
2023/06/15 08:42:50;;;;;;;15.88;10.13;;;;;;;21.76;71.16;93819.66;4896988;29;20069;-96
2023/06/15 08:45:19;;;;;;;17.00;10.10;;;;;;;21.86;70.76;93825.47;4917469;29;20033;-96
2023/06/15 08:48:00;;;;;;;17.00;9.85;;;;;;;21.74;71.16;93824.69;4918092;29;20091;-94
2023/06/15 08:50:49;;;;;;;15.18;10.50;;;;;;;21.72;71.74;93828.94;4919427;29;20025;-96
2023/06/15 08:53:52;;;;;;;;;;;;;;;;;;;;;
2023/06/15 08:57:06;;;;;;;21.02;11.15;;;;;;;21.46;71.83;93827.34;4918941;29;20063;-96
2023/06/15 09:02:51;;;;;;;;;;;;;;;;;;;;;
2023/06/15 09:08:54;;;;;;;26.30;13.65;;;;;;;20.68;78.67;93847.44;4940659;29;20068;-96
2023/06/15 09:11:26;;;;;;;18.85;12.55;;;;;;;20.44;80.47;93853.06;4935919;29;20048;-95
2023/06/15 09:13:57;;;;;;;24.38;14.10;;;;;;;20.28;81.25;93862.59;4933550;29;20102;-96
2023/06/15 09:16:28;;;;;;;22.80;13.43;;;;;;;19.97;79.72;93846.50;4935946;29;20048;-95
2023/06/15 09:18:54;;;;;;;17.85;13.23;;;;;;;19.74;82.25;93859.41;4916237;29;20028;-94
2023/06/15 09:21:32;;;;;;;;;;;;;;;;;;;;;
2023/06/15 09:24:46;;;;;;;23.48;13.95;;;;;;;19.44;84.78;93854.81;4940776;29;20023;-94
2023/06/15 09:27:51;;;;;;;;;;;;;;;;;;;;;
2023/06/15 09:30:34;;;;;;;26.15;15.65;;;;;;;19.37;86.11;93852.78;4935249;29;20043;-93
2023/06/15 09:36:05;;;;;;;25.13;16.30;;;;;;;19.34;85.61;93844.66;5273100;23;20123;-88
2023/06/15 09:58:08;;;;;;;22.45;12.23;;;;;;;18.82;86.43;93845.16;1934588;23;20285;-92
2023/06/15 10:06:47;;;;;;;20.45;13.82;;;;;;;18.74;89.53;93845.41;4921760;29;20016;-95
2023/06/15 10:15:11;;;;;;;23.45;14.55;;;;;;;18.58;92.54;93857.16;6008432;23;20137;-95
2023/06/15 10:20:28;;;;;;;26.50;14.80;;;;;;;18.60;93.18;93854.88;5187241;23;20056;-95
2023/06/15 10:23:08;;;;;;;26.10;16.90;;;;;;;18.69;93.15;93849.22;4921602;29;20044;-95
2023/06/15 10:25:40;;;;;;;22.67;15.93;;;;;;;18.74;91.89;93848.88;4918857;29;20035;-93
2023/06/15 10:28:13;;;;;;;28.45;17.25;;;;;;;18.76;91.46;93848.53;4937455;29;20020;-94
2023/06/15 10:30:48;;;;;;;22.98;15.35;;;;;;;18.79;91.51;93843.22;4936391;29;20226;-93
2023/06/15 10:33:27;;;;;;;31.67;17.75;;;;;;;18.81;91.10;93846.31;4935498;29;20034;-94
2023/06/15 10:36:03;;;;;;;24.77;16.88;;;;;;;18.87;90.74;93852.19;4934072;29;20016;-95
2023/06/15 10:38:51;;;;;;;26.38;15.90;;;;;;;18.93;90.44;93858.84;4917004;29;20034;-95
2023/06/15 10:41:17;;;;;;;27.67;16.35;;;;;;;18.99;90.74;93859.25;4933972;29;20024;-94
2023/06/15 10:43:59;;;;;;;23.85;17.05;;;;;;;19.08;90.08;93850.91;4933191;29;20096;-95
2023/06/15 10:46:36;;;;;;;25.73;15.82;;;;;;;19.16;89.27;93850.63;4932852;29;20020;-94
2023/06/15 10:49:03;;;;;;;24.20;15.63;;;;;;;19.23;89.16;93841.81;4916077;29;20059;-94
2023/06/15 10:51:29;;;;;;;23.58;16.35;;;;;;;19.31;89.79;93843.47;4933259;29;20035;-94
2023/06/15 10:53:58;;;;;;;26.48;16.20;;;;;;;19.47;90.89;93845.19;4933378;29;20059;-92
2023/06/15 10:56:27;;;;;;;29.00;17.10;;;;;;;19.51;91.16;93846.00;4933118;29;20038;-95
2023/06/15 10:59:01;;;;;;;21.30;15.70;;;;;;;19.69;90.22;93838.09;4934367;29;20325;-94
2023/06/15 11:01:29;;;;;;;20.80;15.65;;;;;;;19.89;88.49;93844.88;4934904;29;20028;-92
2023/06/15 11:03:56;;;;;;;20.30;15.52;;;;;;;20.12;88.11;93841.97;4935176;29;20054;-93
2023/06/15 11:06:29;;;;;;;24.00;13.27;;;;;;;20.34;86.96;93836.75;4918137;29;20055;-94
2023/06/15 11:09:12;;;;;;;19.73;12.52;;;;;;;20.46;82.25;93838.38;4938214;29;20036;-93
2023/06/15 11:11:42;;;;;;;15.27;12.07;;;;;;;20.61;82.40;93835.41;4938134;29;20044;-94
2023/06/15 11:14:23;;;;;;;19.83;12.75;;;;;;;20.77;81.87;93828.94;4922763;29;20028;-96
2023/06/15 11:17:08;;;;;;;17.10;12.50;;;;;;;21.01;81.10;93822.88;4941979;29;20028;-95
2023/06/15 11:19:41;;;;;;;20.20;12.65;;;;;;;21.23;80.49;93820.25;4939361;29;20044;-93
2023/06/15 11:24:57;;;;;;;17.02;12.88;;;;;;;21.68;78.23;93809.19;4922940;29;20052;-93
2023/06/15 11:28:03;;;;;;;;;;;;;;;;;;;;;
2023/06/15 11:30:41;;;;;;;15.77;11.18;;;;;;;22.07;75.79;93803.78;4924326;29;20044;-96
2023/06/15 11:33:49;;;;;;;14.00;11.27;;;;;;;22.25;74.63;93801.09;4924067;29;20048;-96
2023/06/15 11:37:03;;;;;;;17.40;10.93;;;;;;;22.39;75.08;93797.63;4923206;29;20032;-96
2023/06/15 11:40:04;;;;;;;;;;;;;;;;;;;;;
2023/06/15 11:42:37;;;;;;;14.63;10.68;;;;;;;22.57;74.14;93778.56;4922908;29;20039;-96
2023/06/15 11:45:25;;;;;;;13.77;10.20;;;;;;;22.53;71.32;93777.78;4923323;29;20028;-96
2023/06/15 11:48:12;;;;;;;;;;;;;;;;;;;;;
2023/06/15 11:51:08;;;;;;;11.38;9.40;;;;;;;22.80;72.23;93776.19;4914532;29;20047;-96
2023/06/15 11:54:07;;;;;;;15.95;10.23;;;;;;;22.99;72.02;93761.34;4919488;29;20036;-96
2023/06/15 11:57:03;;;;;;;13.30;9.45;;;;;;;22.90;67.88;93760.22;4919687;29;20032;-96
2023/06/15 11:59:35;;;;;;;14.23;10.40;;;;;;;22.60;68.93;93761.50;4920297;29;20119;-96
2023/06/15 12:02:10;;;;;;;14.23;10.07;;;;;;;22.57;69.22;93757.63;4918764;29;20040;-96
2023/06/15 12:04:56;;;;;;;12.55;10.35;;;;;;;22.69;70.83;93761.84;4918625;29;20021;-96
2023/06/15 12:07:36;;;;;;;15.05;10.38;;;;;;;22.95;70.65;93749.72;4918232;29;20032;-95
2023/06/15 12:10:11;;;;;;;14.18;10.10;;;;;;;23.05;70.18;93755.56;4918897;29;20047;-96
2023/06/15 12:12:53;;;;;;;15.35;11.23;;;;;;;23.25;71.73;93751.19;4916795;29;20095;-96
2023/06/15 12:15:23;;;;;;;;;;;;;;;23.63;71.53;93743.19;4917988;29;20326;-91
2023/06/15 12:18:04;;;;;;;12.77;9.65;;;;;;;23.89;70.84;93732.91;4917222;29;19939;-96
2023/06/15 12:21:05;;;;;;;15.85;10.15;;;;;;;24.30;69.01;93724.00;4917006;29;20057;-96
2023/06/15 12:23:35;;;;;;;11.13;8.48;;;;;;;24.61;67.56;93733.06;4911476;29;20048;-96
2023/06/15 12:26:10;;;;;;;11.57;9.45;;;;;;;24.97;66.36;93725.25;4918597;29;20129;-96
2023/06/15 12:28:41;;;;;;;16.17;11.73;;;;;;;25.15;62.15;93721.53;4916279;29;20078;-96
2023/06/15 12:31:16;;;;;;;12.40;9.30;;;;;;;25.07;62.11;93725.53;4916819;29;20032;-96
2023/06/15 12:34:03;;;;;;;14.70;8.73;;;;;;;25.12;63.37;93719.63;4919119;29;20025;-96
2023/06/15 12:36:58;;;;;;;;;;;;;;;;;;;;;
2023/06/15 12:40:18;;;;;;;12.02;8.18;;;;;;;25.71;61.21;93719.22;4926840;29;20043;-95
2023/06/15 12:43:32;;;;;;;;;;;;;;;;;;;;;
2023/06/15 12:49:42;;;;;;;;;;;;;;;;;;;;;
2023/06/15 12:52:15;;;;;;;7.63;5.97;;;;;;;26.58;54.90;93700.25;4939011;29;20028;-96
2023/06/15 12:55:05;;;;;;;7.93;5.32;;;;;;;26.64;53.97;93708.72;4937404;29;20349;-96
2023/06/15 12:58:22;;;;;;;12.75;6.72;;;;;;;26.72;54.67;93703.88;4934979;29;20051;-92
2023/06/15 13:00:51;;;;;;;9.98;6.45;;;;;;;26.51;55.22;93689.41;4938011;29;20031;-94
2023/06/15 13:03:29;;;;;;;7.88;5.90;;;;;;;26.38;54.71;93692.00;4921677;29;20035;-96
2023/06/15 13:06:11;;;;;;;10.40;7.13;;;;;;;26.23;54.20;93691.47;4937728;29;20024;-96
2023/06/15 13:14:55;;;;;;;10.10;6.88;;;;;;;25.59;58.04;93676.13;4852400;29;20037;-96
2023/06/15 13:17:31;;;;;;;11.88;7.88;;;;;;;25.46;57.83;93675.91;4915913;29;20042;-96
2023/06/15 13:20:23;;;;;;;10.85;6.90;;;;;;;25.32;58.04;93676.91;4921037;29;20337;-96
2023/06/15 13:22:53;;;;;;;10.10;6.77;;;;;;;25.19;57.83;93678.63;4937774;29;20067;-96
2023/06/15 13:25:22;;;;;;;12.27;7.10;;;;;;;24.97;59.07;93668.00;4919356;29;20310;-96
2023/06/15 13:27:59;;;;;;;9.77;7.45;;;;;;;24.72;59.63;93662.09;4937350;29;20027;-95
2023/06/15 13:30:48;;;;;;;16.52;7.80;;;;;;;24.66;59.98;93664.50;4937679;29;20027;-96
2023/06/15 13:33:17;;;;;;;13.43;7.40;;;;;;;24.56;60.36;93660.72;4922825;29;20032;-96
2023/06/15 13:35:58;;;;;;;11.38;7.70;;;;;;;24.58;60.28;93654.84;4939080;29;20112;-96
2023/06/15 13:38:26;;;;;;;11.20;8.43;;;;;;;24.61;61.47;93657.53;4937113;29;20080;-96
2023/06/15 13:40:58;;;;;;;11.25;8.43;;;;;;;24.59;61.56;93653.69;4922179;29;20032;-96
2023/06/15 13:43:52;;;;;;;9.68;7.93;;;;;;;24.66;62.02;93650.09;4938912;29;20024;-96
2023/06/15 13:46:25;;;;;;;11.38;7.70;;;;;;;24.65;60.16;93648.53;4940809;29;20024;-93
2023/06/15 13:48:54;;;;;;;15.85;7.43;;;;;;;24.62;60.52;93644.69;4924578;29;20027;-96
2023/06/15 13:51:30;;;;;;;11.95;8.32;;;;;;;24.51;58.69;93647.56;4922227;29;20028;-96
2023/06/15 13:54:22;;;;;;;12.57;7.97;;;;;;;24.17;59.74;93637.38;4938652;29;20020;-92
2023/06/15 13:57:50;;;;;;;;;;;;;;;;;;;;;
2023/06/15 14:00:16;;;;;;;8.40;6.75;;;;;;;23.83;62.86;93637.31;5171217;23;21156;-94
2023/06/15 14:02:46;;;;;;;11.70;7.00;;;;;;;23.75;62.12;93641.25;4942814;29;20074;-92
2023/06/15 14:05:14;;;;;;;11.77;7.53;;;;;;;23.63;63.26;93634.38;4926970;29;20032;-95
2023/06/15 14:07:43;;;;;;;13.63;6.82;;;;;;;23.42;63.40;93629.88;4943551;29;20088;-96
2023/06/15 14:15:37;;;;;;;13.18;8.55;;;;;;;22.75;67.36;93631.81;4905237;29;20051;-93
2023/06/15 14:20:48;;;;;;;12.70;8.80;;;;;;;22.22;69.03;93618.03;5077906;23;20059;-88
2023/06/15 14:23:27;;;;;;;12.15;9.27;;;;;;;21.87;71.93;93618.13;4927643;29;20091;-95
2023/06/15 14:37:01;;;;;;;14.48;9.77;;;;;;;21.04;79.66;93615.41;5704912;23;20036;-95
2023/06/15 14:39:45;;;;;;;13.73;9.95;;;;;;;20.91;80.10;93615.00;4923705;29;20036;-94
2023/06/15 14:42:33;;;;;;;;;;;;;;;;;;;;;
2023/06/15 14:45:06;;;;;;;17.30;10.50;;;;;;;20.62;82.08;93609.53;4941817;29;20035;-95
2023/06/15 14:47:47;;;;;;;16.85;10.90;;;;;;;20.48;81.94;93612.16;4940982;29;20198;-96
2023/06/15 14:50:24;;;;;;;14.88;10.35;;;;;;;20.39;83.58;93609.81;4937979;29;20032;-93
2023/06/15 14:52:55;;;;;;;14.18;10.75;;;;;;;20.38;84.61;93607.47;4936114;29;20043;-95
2023/06/15 14:55:29;;;;;;;14.80;10.80;;;;;;;20.32;83.98;93606.31;4936468;29;20032;-95
2023/06/15 14:57:55;;;;;;;17.13;10.45;;;;;;;20.26;84.45;93610.53;4919937;29;20036;-96
2023/06/15 15:00:23;;;;;;;15.73;10.20;;;;;;;20.22;84.79;93600.44;4935797;29;20032;-95
2023/06/15 15:03:09;;;;;;;13.00;10.88;;;;;;;20.26;85.25;93614.00;4936871;29;20051;-95
2023/06/15 15:05:46;;;;;;;13.73;10.35;;;;;;;20.26;85.52;93614.00;4937045;29;20028;-94
2023/06/15 15:08:14;;;;;;;16.08;12.27;;;;;;;20.29;84.66;93613.22;4936488;29;20087;-95
2023/06/15 15:10:48;;;;;;;14.93;10.60;;;;;;;20.28;84.38;93610.91;4935181;29;20023;-95
2023/06/15 15:13:19;;;;;;;21.15;12.45;;;;;;;20.23;84.26;93596.59;4936143;29;20035;-94
2023/06/15 15:15:50;;;;;;;26.23;12.98;;;;;;;20.19;85.29;93608.53;4935705;29;20100;-94
2023/06/15 15:18:19;;;;;;;20.65;13.00;;;;;;;20.14;85.38;93598.09;4920016;29;20024;-94